sensor_id;sensor_type;location;lat;lon;timestamp;temperature;humidity
22787;DHT22;11560;52.982;6.662;2022-07-23T00:02:29;16.10;87.00
22787;DHT22;11560;52.982;6.662;2022-07-23T00:05:15;16.10;87.10
22787;DHT22;11560;52.982;6.662;2022-07-23T00:08:01;16.20;87.10
22787;DHT22;11560;52.982;6.662;2022-07-23T00:10:46;16.10;87.80
22787;DHT22;11560;52.982;6.662;2022-07-23T00:13:32;16.00;86.80
22787;DHT22;11560;52.982;6.662;2022-07-23T00:16:18;15.90;86.70
22787;DHT22;11560;52.982;6.662;2022-07-23T00:19:04;16.10;86.80
22787;DHT22;11560;52.982;6.662;2022-07-23T00:21:50;16.00;87.60
22787;DHT22;11560;52.982;6.662;2022-07-23T00:24:36;15.90;86.80
22787;DHT22;11560;52.982;6.662;2022-07-23T00:27:22;15.80;86.80
22787;DHT22;11560;52.982;6.662;2022-07-23T00:30:09;15.90;86.90
22787;DHT22;11560;52.982;6.662;2022-07-23T00:32:59;15.60;86.60
22787;DHT22;11560;52.982;6.662;2022-07-23T00:35:46;15.80;86.80
22787;DHT22;11560;52.982;6.662;2022-07-23T00:38:31;15.50;86.60
22787;DHT22;11560;52.982;6.662;2022-07-23T00:41:17;15.50;86.70
22787;DHT22;11560;52.982;6.662;2022-07-23T00:44:26;15.40;86.60
22787;DHT22;11560;52.982;6.662;2022-07-23T00:47:12;15.60;86.90
22787;DHT22;11560;52.982;6.662;2022-07-23T00:49:58;15.30;86.80
22787;DHT22;11560;52.982;6.662;2022-07-23T00:52:43;15.30;86.90
22787;DHT22;11560;52.982;6.662;2022-07-23T00:55:30;15.30;87.10
22787;DHT22;11560;52.982;6.662;2022-07-23T00:58:16;15.20;87.00
22787;DHT22;11560;52.982;6.662;2022-07-23T01:01:02;15.20;87.20
22787;DHT22;11560;52.982;6.662;2022-07-23T01:03:47;15.20;87.10
22787;DHT22;11560;52.982;6.662;2022-07-23T01:06:35;15.00;87.10
22787;DHT22;11560;52.982;6.662;2022-07-23T01:09:21;15.00;87.10
22787;DHT22;11560;52.982;6.662;2022-07-23T01:12:07;14.90;87.10
22787;DHT22;11560;52.982;6.662;2022-07-23T01:14:57;15.00;87.30
22787;DHT22;11560;52.982;6.662;2022-07-23T01:17:45;15.00;87.40
22787;DHT22;11560;52.982;6.662;2022-07-23T01:20:32;14.90;87.30
22787;DHT22;11560;52.982;6.662;2022-07-23T01:23:18;14.80;87.30
22787;DHT22;11560;52.982;6.662;2022-07-23T01:26:09;14.60;87.40
22787;DHT22;11560;52.982;6.662;2022-07-23T01:28:56;14.80;87.70
22787;DHT22;11560;52.982;6.662;2022-07-23T01:31:43;14.50;87.50
22787;DHT22;11560;52.982;6.662;2022-07-23T01:34:29;14.50;87.60
22787;DHT22;11560;52.982;6.662;2022-07-23T01:37:15;14.50;87.70
22787;DHT22;11560;52.982;6.662;2022-07-23T01:40:02;14.60;87.80
22787;DHT22;11560;52.982;6.662;2022-07-23T01:42:47;14.40;87.80
22787;DHT22;11560;52.982;6.662;2022-07-23T01:45:34;14.30;87.80
22787;DHT22;11560;52.982;6.662;2022-07-23T01:48:20;14.40;87.90
22787;DHT22;11560;52.982;6.662;2022-07-23T01:51:26;14.50;87.90
22787;DHT22;11560;52.982;6.662;2022-07-23T01:54:19;14.20;87.70
22787;DHT22;11560;52.982;6.662;2022-07-23T01:57:06;14.20;87.80
22787;DHT22;11560;52.982;6.662;2022-07-23T01:59:52;14.30;88.00
22787;DHT22;11560;52.982;6.662;2022-07-23T02:02:39;14.10;88.00
22787;DHT22;11560;52.982;6.662;2022-07-23T02:05:25;14.30;88.20
22787;DHT22;11560;52.982;6.662;2022-07-23T02:08:11;14.20;88.20
22787;DHT22;11560;52.982;6.662;2022-07-23T02:10:56;14.20;88.20
22787;DHT22;11560;52.982;6.662;2022-07-23T02:13:42;14.00;88.40
22787;DHT22;11560;52.982;6.662;2022-07-23T02:16:28;14.00;88.40
22787;DHT22;11560;52.982;6.662;2022-07-23T02:19:19;14.00;88.50
22787;DHT22;11560;52.982;6.662;2022-07-23T02:22:04;13.90;88.40
22787;DHT22;11560;52.982;6.662;2022-07-23T02:24:52;13.90;88.50
22787;DHT22;11560;52.982;6.662;2022-07-23T02:27:38;14.00;89.50
22787;DHT22;11560;52.982;6.662;2022-07-23T02:30:27;13.80;88.70
22787;DHT22;11560;52.982;6.662;2022-07-23T02:33:13;13.90;88.90
22787;DHT22;11560;52.982;6.662;2022-07-23T02:35:59;13.90;89.60
22787;DHT22;11560;52.982;6.662;2022-07-23T02:38:44;13.80;88.80
22787;DHT22;11560;52.982;6.662;2022-07-23T02:41:30;13.80;88.80
22787;DHT22;11560;52.982;6.662;2022-07-23T02:44:16;13.70;89.00
22787;DHT22;11560;52.982;6.662;2022-07-23T02:47:06;13.80;89.00
22787;DHT22;11560;52.982;6.662;2022-07-23T02:49:51;13.90;89.20
22787;DHT22;11560;52.982;6.662;2022-07-23T02:52:37;13.80;89.20
22787;DHT22;11560;52.982;6.662;2022-07-23T02:55:23;13.80;89.10
22787;DHT22;11560;52.982;6.662;2022-07-23T02:58:10;13.70;89.10
22787;DHT22;11560;52.982;6.662;2022-07-23T03:00:55;13.50;89.00
22787;DHT22;11560;52.982;6.662;2022-07-23T03:03:43;13.50;89.00
22787;DHT22;11560;52.982;6.662;2022-07-23T03:06:28;13.70;89.30
22787;DHT22;11560;52.982;6.662;2022-07-23T03:09:16;13.60;89.30
22787;DHT22;11560;52.982;6.662;2022-07-23T03:12:02;13.50;89.40
22787;DHT22;11560;52.982;6.662;2022-07-23T03:14:48;13.60;89.50
22787;DHT22;11560;52.982;6.662;2022-07-23T03:17:34;13.60;90.10
22787;DHT22;11560;52.982;6.662;2022-07-23T03:20:20;13.50;89.50
22787;DHT22;11560;52.982;6.662;2022-07-23T03:23:05;13.40;89.60
22787;DHT22;11560;52.982;6.662;2022-07-23T03:25:51;13.50;89.70
22787;DHT22;11560;52.982;6.662;2022-07-23T03:28:40;13.50;89.80
22787;DHT22;11560;52.982;6.662;2022-07-23T03:31:25;13.50;89.70
22787;DHT22;11560;52.982;6.662;2022-07-23T03:34:11;13.40;89.60
22787;DHT22;11560;52.982;6.662;2022-07-23T03:36:56;13.20;89.40
22787;DHT22;11560;52.982;6.662;2022-07-23T03:39:43;13.30;90.20
22787;DHT22;11560;52.982;6.662;2022-07-23T03:42:28;13.30;89.80
22787;DHT22;11560;52.982;6.662;2022-07-23T03:45:14;13.20;89.80
22787;DHT22;11560;52.982;6.662;2022-07-23T03:48:00;13.20;89.90
22787;DHT22;11560;52.982;6.662;2022-07-23T03:50:47;13.20;90.00
22787;DHT22;11560;52.982;6.662;2022-07-23T03:53:32;13.30;90.10
22787;DHT22;11560;52.982;6.662;2022-07-23T03:56:19;13.30;90.10
22787;DHT22;11560;52.982;6.662;2022-07-23T03:59:04;13.20;90.10
22787;DHT22;11560;52.982;6.662;2022-07-23T04:01:51;13.20;90.10
22787;DHT22;11560;52.982;6.662;2022-07-23T04:04:36;13.20;90.20
22787;DHT22;11560;52.982;6.662;2022-07-23T04:07:24;13.30;90.20
22787;DHT22;11560;52.982;6.662;2022-07-23T04:10:09;13.20;90.20
22787;DHT22;11560;52.982;6.662;2022-07-23T04:12:55;13.30;90.30
22787;DHT22;11560;52.982;6.662;2022-07-23T04:15:47;13.40;90.30
22787;DHT22;11560;52.982;6.662;2022-07-23T04:18:55;13.40;90.40
22787;DHT22;11560;52.982;6.662;2022-07-23T04:21:43;13.30;90.50
22787;DHT22;11560;52.982;6.662;2022-07-23T04:24:29;13.50;90.60
22787;DHT22;11560;52.982;6.662;2022-07-23T04:27:16;13.40;90.70
22787;DHT22;11560;52.982;6.662;2022-07-23T04:30:01;13.60;90.70
22787;DHT22;11560;52.982;6.662;2022-07-23T04:32:49;13.70;90.80
22787;DHT22;11560;52.982;6.662;2022-07-23T04:35:40;13.60;90.80
22787;DHT22;11560;52.982;6.662;2022-07-23T04:38:36;13.60;90.90
22787;DHT22;11560;52.982;6.662;2022-07-23T04:41:22;13.90;91.00
22787;DHT22;11560;52.982;6.662;2022-07-23T04:44:08;13.70;90.90
22787;DHT22;11560;52.982;6.662;2022-07-23T04:46:54;14.00;91.00
22787;DHT22;11560;52.982;6.662;2022-07-23T04:49:41;14.00;91.10
22787;DHT22;11560;52.982;6.662;2022-07-23T04:52:27;13.90;91.10
22787;DHT22;11560;52.982;6.662;2022-07-23T04:55:12;13.90;91.10
22787;DHT22;11560;52.982;6.662;2022-07-23T04:57:58;14.00;91.20
22787;DHT22;11560;52.982;6.662;2022-07-23T05:00:44;14.10;91.30
22787;DHT22;11560;52.982;6.662;2022-07-23T05:03:30;14.10;91.20
22787;DHT22;11560;52.982;6.662;2022-07-23T05:06:16;14.20;91.30
22787;DHT22;11560;52.982;6.662;2022-07-23T05:09:05;14.30;91.40
22787;DHT22;11560;52.982;6.662;2022-07-23T05:11:50;14.40;91.80
22787;DHT22;11560;52.982;6.662;2022-07-23T05:14:36;14.50;91.50
22787;DHT22;11560;52.982;6.662;2022-07-23T05:17:21;14.80;91.70
22787;DHT22;11560;52.982;6.662;2022-07-23T05:20:07;14.90;92.10
22787;DHT22;11560;52.982;6.662;2022-07-23T05:22:53;15.30;92.60
22787;DHT22;11560;52.982;6.662;2022-07-23T05:25:40;15.60;92.90
22787;DHT22;11560;52.982;6.662;2022-07-23T05:28:27;16.00;93.30
22787;DHT22;11560;52.982;6.662;2022-07-23T05:31:13;16.60;93.60
22787;DHT22;11560;52.982;6.662;2022-07-23T05:33:59;17.00;93.90
22787;DHT22;11560;52.982;6.662;2022-07-23T05:36:45;17.50;93.90
22787;DHT22;11560;52.982;6.662;2022-07-23T05:39:30;18.00;93.90
22787;DHT22;11560;52.982;6.662;2022-07-23T05:42:16;18.50;93.60
22787;DHT22;11560;52.982;6.662;2022-07-23T05:45:02;19.00;93.00
22787;DHT22;11560;52.982;6.662;2022-07-23T05:47:54;19.50;92.10
22787;DHT22;11560;52.982;6.662;2022-07-23T05:50:48;20.10;90.70
22787;DHT22;11560;52.982;6.662;2022-07-23T05:53:46;20.20;89.30
22787;DHT22;11560;52.982;6.662;2022-07-23T05:56:39;20.50;86.30
22787;DHT22;11560;52.982;6.662;2022-07-23T05:59:24;20.90;84.40
22787;DHT22;11560;52.982;6.662;2022-07-23T06:02:10;21.50;81.80
22787;DHT22;11560;52.982;6.662;2022-07-23T06:04:56;21.50;79.50
22787;DHT22;11560;52.982;6.662;2022-07-23T06:07:48;22.00;77.60
22787;DHT22;11560;52.982;6.662;2022-07-23T06:10:36;22.20;75.00
22787;DHT22;11560;52.982;6.662;2022-07-23T06:13:22;22.10;72.60
22787;DHT22;11560;52.982;6.662;2022-07-23T06:16:08;22.30;71.80
22787;DHT22;11560;52.982;6.662;2022-07-23T06:18:54;22.60;70.50
22787;DHT22;11560;52.982;6.662;2022-07-23T06:21:40;22.60;68.20
22787;DHT22;11560;52.982;6.662;2022-07-23T06:24:35;22.50;67.70
22787;DHT22;11560;52.982;6.662;2022-07-23T06:27:21;22.50;66.60
22787;DHT22;11560;52.982;6.662;2022-07-23T06:30:11;22.70;65.90
22787;DHT22;11560;52.982;6.662;2022-07-23T06:32:58;22.60;64.80
22787;DHT22;11560;52.982;6.662;2022-07-23T06:35:44;22.50;63.20
22787;DHT22;11560;52.982;6.662;2022-07-23T06:38:30;22.50;63.20
22787;DHT22;11560;52.982;6.662;2022-07-23T06:41:20;22.10;63.10
22787;DHT22;11560;52.982;6.662;2022-07-23T06:44:05;22.20;63.00
22787;DHT22;11560;52.982;6.662;2022-07-23T06:46:53;21.90;63.30
22787;DHT22;11560;52.982;6.662;2022-07-23T06:49:38;21.70;63.20
22787;DHT22;11560;52.982;6.662;2022-07-23T06:52:26;21.80;63.40
22787;DHT22;11560;52.982;6.662;2022-07-23T06:55:14;21.60;63.50
22787;DHT22;11560;52.982;6.662;2022-07-23T06:58:02;21.10;63.60
22787;DHT22;11560;52.982;6.662;2022-07-23T07:00:49;20.90;63.70
22787;DHT22;11560;52.982;6.662;2022-07-23T07:03:34;20.90;64.30
22787;DHT22;11560;52.982;6.662;2022-07-23T07:06:22;20.80;64.70
22787;DHT22;11560;52.982;6.662;2022-07-23T07:09:09;20.90;65.20
22787;DHT22;11560;52.982;6.662;2022-07-23T07:11:55;20.70;65.50
22787;DHT22;11560;52.982;6.662;2022-07-23T07:14:41;20.60;65.70
22787;DHT22;11560;52.982;6.662;2022-07-23T07:17:30;20.40;66.30
22787;DHT22;11560;52.982;6.662;2022-07-23T07:20:16;20.50;66.50
22787;DHT22;11560;52.982;6.662;2022-07-23T07:23:02;20.50;67.00
22787;DHT22;11560;52.982;6.662;2022-07-23T07:25:47;20.50;67.20
22787;DHT22;11560;52.982;6.662;2022-07-23T07:28:34;20.50;67.20
22787;DHT22;11560;52.982;6.662;2022-07-23T07:31:19;20.60;67.30
22787;DHT22;11560;52.982;6.662;2022-07-23T07:34:05;20.70;67.70
22787;DHT22;11560;52.982;6.662;2022-07-23T07:36:53;20.70;67.70
22787;DHT22;11560;52.982;6.662;2022-07-23T07:39:38;20.80;67.50
22787;DHT22;11560;52.982;6.662;2022-07-23T07:42:24;20.80;67.60
22787;DHT22;11560;52.982;6.662;2022-07-23T07:45:10;20.80;67.40
22787;DHT22;11560;52.982;6.662;2022-07-23T07:47:55;20.70;66.40
22787;DHT22;11560;52.982;6.662;2022-07-23T07:50:41;20.60;66.30
22787;DHT22;11560;52.982;6.662;2022-07-23T07:53:27;20.40;66.40
22787;DHT22;11560;52.982;6.662;2022-07-23T07:56:12;20.60;66.00
22787;DHT22;11560;52.982;6.662;2022-07-23T07:58:58;20.40;65.90
22787;DHT22;11560;52.982;6.662;2022-07-23T08:01:44;20.30;66.00
22787;DHT22;11560;52.982;6.662;2022-07-23T08:04:30;20.10;66.50
22787;DHT22;11560;52.982;6.662;2022-07-23T08:07:15;20.20;67.20
22787;DHT22;11560;52.982;6.662;2022-07-23T08:10:01;19.90;67.10
22787;DHT22;11560;52.982;6.662;2022-07-23T08:12:51;20.30;67.70
22787;DHT22;11560;52.982;6.662;2022-07-23T08:15:38;20.20;67.60
22787;DHT22;11560;52.982;6.662;2022-07-23T08:18:23;20.40;66.40
22787;DHT22;11560;52.982;6.662;2022-07-23T08:21:11;20.10;64.80
22787;DHT22;11560;52.982;6.662;2022-07-23T08:23:58;20.20;65.20
22787;DHT22;11560;52.982;6.662;2022-07-23T08:26:44;20.40;65.50
22787;DHT22;11560;52.982;6.662;2022-07-23T08:29:30;20.50;65.10
22787;DHT22;11560;52.982;6.662;2022-07-23T08:32:15;20.50;64.20
22787;DHT22;11560;52.982;6.662;2022-07-23T08:35:37;20.60;63.60
22787;DHT22;11560;52.982;6.662;2022-07-23T08:38:53;20.50;62.60
22787;DHT22;11560;52.982;6.662;2022-07-23T08:41:40;20.40;62.40
22787;DHT22;11560;52.982;6.662;2022-07-23T08:44:27;20.60;62.40
22787;DHT22;11560;52.982;6.662;2022-07-23T08:47:14;20.50;61.40
22787;DHT22;11560;52.982;6.662;2022-07-23T08:50:02;20.60;61.20
22787;DHT22;11560;52.982;6.662;2022-07-23T08:52:50;20.90;60.70
22787;DHT22;11560;52.982;6.662;2022-07-23T08:55:36;20.90;60.20
22787;DHT22;11560;52.982;6.662;2022-07-23T08:58:23;21.20;59.60
22787;DHT22;11560;52.982;6.662;2022-07-23T09:01:14;21.10;59.40
22787;DHT22;11560;52.982;6.662;2022-07-23T09:04:01;21.40;59.00
22787;DHT22;11560;52.982;6.662;2022-07-23T09:06:47;21.30;59.10
22787;DHT22;11560;52.982;6.662;2022-07-23T09:09:33;21.40;58.60
22787;DHT22;11560;52.982;6.662;2022-07-23T09:12:19;21.50;58.20
22787;DHT22;11560;52.982;6.662;2022-07-23T09:15:06;21.60;58.00
22787;DHT22;11560;52.982;6.662;2022-07-23T09:17:52;21.80;57.70
22787;DHT22;11560;52.982;6.662;2022-07-23T09:20:38;21.90;56.60
22787;DHT22;11560;52.982;6.662;2022-07-23T09:23:37;22.20;56.60
22787;DHT22;11560;52.982;6.662;2022-07-23T09:26:26;22.30;56.30
22787;DHT22;11560;52.982;6.662;2022-07-23T09:29:21;22.40;56.10
22787;DHT22;11560;52.982;6.662;2022-07-23T09:32:13;22.40;55.70
22787;DHT22;11560;52.982;6.662;2022-07-23T09:34:58;22.70;55.40
22787;DHT22;11560;52.982;6.662;2022-07-23T09:38:01;22.70;55.10
22787;DHT22;11560;52.982;6.662;2022-07-23T09:40:47;22.80;54.30
22787;DHT22;11560;52.982;6.662;2022-07-23T09:43:55;22.70;54.10
22787;DHT22;11560;52.982;6.662;2022-07-23T09:46:42;23.10;54.30
22787;DHT22;11560;52.982;6.662;2022-07-23T09:49:28;23.20;54.30
22787;DHT22;11560;52.982;6.662;2022-07-23T09:52:26;23.20;53.70
22787;DHT22;11560;52.982;6.662;2022-07-23T09:55:18;23.20;52.80
22787;DHT22;11560;52.982;6.662;2022-07-23T09:58:05;23.20;53.30
22787;DHT22;11560;52.982;6.662;2022-07-23T10:00:55;23.30;53.20
22787;DHT22;11560;52.982;6.662;2022-07-23T10:03:42;23.20;52.70
22787;DHT22;11560;52.982;6.662;2022-07-23T10:07:03;23.40;52.50
22787;DHT22;11560;52.982;6.662;2022-07-23T10:10:09;23.40;53.20
22787;DHT22;11560;52.982;6.662;2022-07-23T10:13:15;23.40;53.70
22787;DHT22;11560;52.982;6.662;2022-07-23T10:16:07;23.80;53.60
22787;DHT22;11560;52.982;6.662;2022-07-23T10:18:54;23.60;53.00
22787;DHT22;11560;52.982;6.662;2022-07-23T10:21:49;24.00;52.80
22787;DHT22;11560;52.982;6.662;2022-07-23T10:28:33;24.20;52.20
22787;DHT22;11560;52.982;6.662;2022-07-23T10:34:55;24.30;51.50
22787;DHT22;11560;52.982;6.662;2022-07-23T10:37:51;24.10;51.60
22787;DHT22;11560;52.982;6.662;2022-07-23T10:41:07;24.20;51.50
22787;DHT22;11560;52.982;6.662;2022-07-23T10:44:10;24.50;51.20
22787;DHT22;11560;52.982;6.662;2022-07-23T10:47:01;24.40;50.90
22787;DHT22;11560;52.982;6.662;2022-07-23T10:50:23;24.50;50.40
22787;DHT22;11560;52.982;6.662;2022-07-23T10:53:14;24.20;50.70
22787;DHT22;11560;52.982;6.662;2022-07-23T10:56:01;24.20;50.90
22787;DHT22;11560;52.982;6.662;2022-07-23T10:58:49;24.00;51.20
22787;DHT22;11560;52.982;6.662;2022-07-23T11:01:37;24.10;51.20
22787;DHT22;11560;52.982;6.662;2022-07-23T11:04:47;24.20;51.60
22787;DHT22;11560;52.982;6.662;2022-07-23T11:10:44;24.00;52.00
22787;DHT22;11560;52.982;6.662;2022-07-23T11:13:39;24.20;51.70
22787;DHT22;11560;52.982;6.662;2022-07-23T11:16:25;24.30;51.70
22787;DHT22;11560;52.982;6.662;2022-07-23T11:19:11;24.50;51.80
22787;DHT22;11560;52.982;6.662;2022-07-23T11:21:56;24.30;51.40
22787;DHT22;11560;52.982;6.662;2022-07-23T11:24:51;24.40;51.80
22787;DHT22;11560;52.982;6.662;2022-07-23T11:27:42;24.50;51.60
22787;DHT22;11560;52.982;6.662;2022-07-23T11:33:17;25.10;51.80
22787;DHT22;11560;52.982;6.662;2022-07-23T11:36:04;25.10;51.40
22787;DHT22;11560;52.982;6.662;2022-07-23T11:38:50;25.20;51.20
22787;DHT22;11560;52.982;6.662;2022-07-23T11:41:46;25.40;50.70
22787;DHT22;11560;52.982;6.662;2022-07-23T11:44:37;25.40;50.70
22787;DHT22;11560;52.982;6.662;2022-07-23T11:47:25;25.70;51.20
22787;DHT22;11560;52.982;6.662;2022-07-23T11:50:11;25.60;50.00
22787;DHT22;11560;52.982;6.662;2022-07-23T11:52:57;25.70;49.50
22787;DHT22;11560;52.982;6.662;2022-07-23T11:55:43;25.80;49.50
22787;DHT22;11560;52.982;6.662;2022-07-23T11:58:28;25.60;49.90
22787;DHT22;11560;52.982;6.662;2022-07-23T12:01:14;25.50;49.60
22787;DHT22;11560;52.982;6.662;2022-07-23T12:04:04;25.50;50.40
22787;DHT22;11560;52.982;6.662;2022-07-23T12:06:50;25.70;50.20
22787;DHT22;11560;52.982;6.662;2022-07-23T12:09:36;25.70;50.30
22787;DHT22;11560;52.982;6.662;2022-07-23T12:12:22;26.00;50.20
22787;DHT22;11560;52.982;6.662;2022-07-23T12:15:08;25.80;49.60
22787;DHT22;11560;52.982;6.662;2022-07-23T12:17:54;26.00;49.70
22787;DHT22;11560;52.982;6.662;2022-07-23T12:20:43;26.00;49.50
22787;DHT22;11560;52.982;6.662;2022-07-23T12:23:28;25.90;49.60
22787;DHT22;11560;52.982;6.662;2022-07-23T12:26:14;25.90;49.30
22787;DHT22;11560;52.982;6.662;2022-07-23T12:28:59;25.60;49.60
22787;DHT22;11560;52.982;6.662;2022-07-23T12:31:45;25.60;49.80
22787;DHT22;11560;52.982;6.662;2022-07-23T12:34:32;25.80;49.80
22787;DHT22;11560;52.982;6.662;2022-07-23T12:37:29;25.70;49.70
22787;DHT22;11560;52.982;6.662;2022-07-23T12:40:32;25.50;49.60
22787;DHT22;11560;52.982;6.662;2022-07-23T12:43:28;25.20;50.20
22787;DHT22;11560;52.982;6.662;2022-07-23T12:46:14;25.20;51.00
22787;DHT22;11560;52.982;6.662;2022-07-23T12:49:00;25.10;51.50
22787;DHT22;11560;52.982;6.662;2022-07-23T12:51:46;25.10;52.00
22787;DHT22;11560;52.982;6.662;2022-07-23T12:54:33;25.30;51.40
22787;DHT22;11560;52.982;6.662;2022-07-23T12:57:19;25.50;51.30
22787;DHT22;11560;52.982;6.662;2022-07-23T13:00:25;25.90;51.40
22787;DHT22;11560;52.982;6.662;2022-07-23T13:03:24;25.60;50.80
22787;DHT22;11560;52.982;6.662;2022-07-23T13:06:16;26.00;51.00
22787;DHT22;11560;52.982;6.662;2022-07-23T13:09:03;26.20;50.80
22787;DHT22;11560;52.982;6.662;2022-07-23T13:11:51;26.20;50.60
22787;DHT22;11560;52.982;6.662;2022-07-23T13:14:37;25.90;50.10
22787;DHT22;11560;52.982;6.662;2022-07-23T13:17:23;26.20;50.30
22787;DHT22;11560;52.982;6.662;2022-07-23T13:20:09;26.20;49.90
22787;DHT22;11560;52.982;6.662;2022-07-23T13:22:57;26.40;49.60
22787;DHT22;11560;52.982;6.662;2022-07-23T13:25:43;26.40;49.40
22787;DHT22;11560;52.982;6.662;2022-07-23T13:28:30;26.70;49.20
22787;DHT22;11560;52.982;6.662;2022-07-23T13:31:16;26.60;48.90
22787;DHT22;11560;52.982;6.662;2022-07-23T13:34:02;26.70;48.90
22787;DHT22;11560;52.982;6.662;2022-07-23T13:36:48;26.50;48.70
22787;DHT22;11560;52.982;6.662;2022-07-23T13:39:33;26.30;48.60
22787;DHT22;11560;52.982;6.662;2022-07-23T13:42:23;26.10;49.20
22787;DHT22;11560;52.982;6.662;2022-07-23T13:45:08;26.00;49.80
22787;DHT22;11560;52.982;6.662;2022-07-23T13:47:57;26.10;50.00
22787;DHT22;11560;52.982;6.662;2022-07-23T13:50:44;26.00;50.20
22787;DHT22;11560;52.982;6.662;2022-07-23T13:53:31;25.90;49.80
22787;DHT22;11560;52.982;6.662;2022-07-23T13:56:17;25.70;50.00
22787;DHT22;11560;52.982;6.662;2022-07-23T13:59:03;25.80;50.90
22787;DHT22;11560;52.982;6.662;2022-07-23T14:01:51;25.90;50.30
22787;DHT22;11560;52.982;6.662;2022-07-23T14:04:57;25.70;50.50
22787;DHT22;11560;52.982;6.662;2022-07-23T14:07:45;25.40;51.30
22787;DHT22;11560;52.982;6.662;2022-07-23T14:10:32;25.50;52.00
22787;DHT22;11560;52.982;6.662;2022-07-23T14:13:22;25.40;52.30
22787;DHT22;11560;52.982;6.662;2022-07-23T14:16:08;25.10;52.40
22787;DHT22;11560;52.982;6.662;2022-07-23T14:18:54;24.90;53.20
22787;DHT22;11560;52.982;6.662;2022-07-23T14:21:40;25.00;53.20
22787;DHT22;11560;52.982;6.662;2022-07-23T14:24:25;25.20;53.40
22787;DHT22;11560;52.982;6.662;2022-07-23T14:27:17;25.00;53.30
22787;DHT22;11560;52.982;6.662;2022-07-23T14:30:06;24.90;53.60
22787;DHT22;11560;52.982;6.662;2022-07-23T14:32:52;24.90;53.50
22787;DHT22;11560;52.982;6.662;2022-07-23T14:35:41;24.90;53.70
22787;DHT22;11560;52.982;6.662;2022-07-23T14:38:27;24.80;53.70
22787;DHT22;11560;52.982;6.662;2022-07-23T14:41:13;25.00;53.40
22787;DHT22;11560;52.982;6.662;2022-07-23T14:44:00;24.80;53.00
22787;DHT22;11560;52.982;6.662;2022-07-23T14:46:46;25.00;53.00
22787;DHT22;11560;52.982;6.662;2022-07-23T14:49:32;24.70;52.70
22787;DHT22;11560;52.982;6.662;2022-07-23T14:52:18;24.70;53.20
22787;DHT22;11560;52.982;6.662;2022-07-23T14:55:04;24.60;53.50
22787;DHT22;11560;52.982;6.662;2022-07-23T14:57:51;24.80;53.80
22787;DHT22;11560;52.982;6.662;2022-07-23T15:00:37;24.70;54.40
22787;DHT22;11560;52.982;6.662;2022-07-23T15:03:23;24.70;54.30
22787;DHT22;11560;52.982;6.662;2022-07-23T15:06:27;24.50;54.50
22787;DHT22;11560;52.982;6.662;2022-07-23T15:09:12;24.70;55.00
22787;DHT22;11560;52.982;6.662;2022-07-23T15:11:59;24.40;54.90
22787;DHT22;11560;52.982;6.662;2022-07-23T15:14:45;24.60;54.70
22787;DHT22;11560;52.982;6.662;2022-07-23T15:17:33;24.50;54.90
22787;DHT22;11560;52.982;6.662;2022-07-23T15:20:18;24.60;55.20
22787;DHT22;11560;52.982;6.662;2022-07-23T15:23:24;24.50;55.10
22787;DHT22;11560;52.982;6.662;2022-07-23T15:26:10;24.70;55.30
22787;DHT22;11560;52.982;6.662;2022-07-23T15:28:57;24.70;55.20
22787;DHT22;11560;52.982;6.662;2022-07-23T15:31:45;24.90;55.30
22787;DHT22;11560;52.982;6.662;2022-07-23T15:34:31;25.10;55.20
22787;DHT22;11560;52.982;6.662;2022-07-23T15:37:17;24.90;54.90
22787;DHT22;11560;52.982;6.662;2022-07-23T15:40:03;24.80;54.60
22787;DHT22;11560;52.982;6.662;2022-07-23T15:42:58;24.90;54.90
22787;DHT22;11560;52.982;6.662;2022-07-23T15:45:43;25.10;55.10
22787;DHT22;11560;52.982;6.662;2022-07-23T15:48:29;24.80;54.90
22787;DHT22;11560;52.982;6.662;2022-07-23T15:51:16;25.10;55.40
22787;DHT22;11560;52.982;6.662;2022-07-23T15:54:02;25.10;55.10
22787;DHT22;11560;52.982;6.662;2022-07-23T15:56:50;25.50;54.60
22787;DHT22;11560;52.982;6.662;2022-07-23T15:59:36;25.40;53.50
22787;DHT22;11560;52.982;6.662;2022-07-23T16:02:25;25.60;53.50
22787;DHT22;11560;52.982;6.662;2022-07-23T16:05:12;25.70;54.00
22787;DHT22;11560;52.982;6.662;2022-07-23T16:07:59;25.90;54.10
22787;DHT22;11560;52.982;6.662;2022-07-23T16:10:44;25.80;53.60
22787;DHT22;11560;52.982;6.662;2022-07-23T16:13:30;25.70;53.40
22787;DHT22;11560;52.982;6.662;2022-07-23T16:16:15;25.70;53.20
22787;DHT22;11560;52.982;6.662;2022-07-23T16:19:26;25.80;53.10
22787;DHT22;11560;52.982;6.662;2022-07-23T16:22:12;25.90;52.50
22787;DHT22;11560;52.982;6.662;2022-07-23T16:25:01;25.80;52.10
22787;DHT22;11560;52.982;6.662;2022-07-23T16:27:50;26.00;52.50
22787;DHT22;11560;52.982;6.662;2022-07-23T16:30:35;25.60;52.30
22787;DHT22;11560;52.982;6.662;2022-07-23T16:33:21;25.90;52.80
22787;DHT22;11560;52.982;6.662;2022-07-23T16:36:07;25.90;52.40
22787;DHT22;11560;52.982;6.662;2022-07-23T16:38:52;25.80;52.10
22787;DHT22;11560;52.982;6.662;2022-07-23T16:41:38;25.90;51.70
22787;DHT22;11560;52.982;6.662;2022-07-23T16:44:23;25.70;51.60
22787;DHT22;11560;52.982;6.662;2022-07-23T16:47:09;25.90;51.90
22787;DHT22;11560;52.982;6.662;2022-07-23T16:49:55;25.60;52.10
22787;DHT22;11560;52.982;6.662;2022-07-23T16:52:41;25.50;52.30
22787;DHT22;11560;52.982;6.662;2022-07-23T16:55:27;25.50;52.30
22787;DHT22;11560;52.982;6.662;2022-07-23T16:58:12;25.60;52.70
22787;DHT22;11560;52.982;6.662;2022-07-23T17:00:58;25.70;52.90
22787;DHT22;11560;52.982;6.662;2022-07-23T17:03:43;25.70;52.60
22787;DHT22;11560;52.982;6.662;2022-07-23T17:06:32;25.30;52.60
22787;DHT22;11560;52.982;6.662;2022-07-23T17:09:21;25.60;52.80
22787;DHT22;11560;52.982;6.662;2022-07-23T17:12:07;25.50;52.70
22787;DHT22;11560;52.982;6.662;2022-07-23T17:14:52;25.30;52.60
22787;DHT22;11560;52.982;6.662;2022-07-23T17:17:38;25.20;52.70
22787;DHT22;11560;52.982;6.662;2022-07-23T17:20:23;25.10;52.90
22787;DHT22;11560;52.982;6.662;2022-07-23T17:23:10;25.30;52.90
22787;DHT22;11560;52.982;6.662;2022-07-23T17:25:57;24.80;52.90
22787;DHT22;11560;52.982;6.662;2022-07-23T17:28:45;24.90;53.50
22787;DHT22;11560;52.982;6.662;2022-07-23T17:31:31;24.80;54.00
22787;DHT22;11560;52.982;6.662;2022-07-23T17:34:17;24.50;54.20
22787;DHT22;11560;52.982;6.662;2022-07-23T17:37:03;24.50;54.80
22787;DHT22;11560;52.982;6.662;2022-07-23T17:39:49;24.40;55.40
22787;DHT22;11560;52.982;6.662;2022-07-23T17:42:36;24.50;56.00
22787;DHT22;11560;52.982;6.662;2022-07-23T17:45:26;24.20;56.20
22787;DHT22;11560;52.982;6.662;2022-07-23T17:48:13;24.40;56.10
22787;DHT22;11560;52.982;6.662;2022-07-23T17:50:58;24.50;55.80
22787;DHT22;11560;52.982;6.662;2022-07-23T17:53:44;24.30;55.50
22787;DHT22;11560;52.982;6.662;2022-07-23T17:56:29;24.30;55.60